createdAt,value
2023-03-27T00:01:34.214Z,2.80
2023-03-27T00:04:02.288Z,2.70
2023-03-27T00:06:30.313Z,2.60
2023-03-27T00:08:58.346Z,2.60
2023-03-27T00:11:27.034Z,2.50
2023-03-27T00:13:55.021Z,2.60
2023-03-27T00:16:28.896Z,2.50
2023-03-27T00:18:57.108Z,2.60
2023-03-27T00:21:26.153Z,2.60
2023-03-27T00:23:54.707Z,2.60
2023-03-27T00:26:23.129Z,2.50
2023-03-27T00:28:50.991Z,2.60
2023-03-27T00:31:18.964Z,2.50
2023-03-27T00:33:46.719Z,2.50
2023-03-27T00:36:15.416Z,2.50
2023-03-27T00:38:43.964Z,2.50
2023-03-27T00:41:12.815Z,2.50
2023-03-27T00:43:44.167Z,2.40
2023-03-27T00:46:44.594Z,2.30
2023-03-27T00:49:16.827Z,2.40
2023-03-27T00:51:48.626Z,2.30
2023-03-27T00:54:26.932Z,2.20
2023-03-27T00:57:07.339Z,2.10
2023-03-27T00:59:44.449Z,2.10
2023-03-27T01:02:14.814Z,2.10
2023-03-27T01:04:46.442Z,2.00
2023-03-27T01:07:15.523Z,2.00
2023-03-27T01:09:45.926Z,2.00
2023-03-27T01:12:49.234Z,2.10
2023-03-27T01:15:30.844Z,2.10
2023-03-27T01:18:39.893Z,2.10
2023-03-27T01:21:51.943Z,2.20
2023-03-27T01:24:57.196Z,2.30
2023-03-27T01:28:42.702Z,2.30
2023-03-27T01:32:25.986Z,2.30
2023-03-27T01:36:13.808Z,2.30
2023-03-27T01:39:54.967Z,2.40
2023-03-27T01:42:40.713Z,2.30
2023-03-27T01:45:27.800Z,2.30
2023-03-27T01:48:50.380Z,2.20
2023-03-27T01:51:36.814Z,2.00
2023-03-27T01:54:38.587Z,2.00
2023-03-27T01:57:31.060Z,2.00
2023-03-27T02:00:19.495Z,2.00
2023-03-27T02:02:59.840Z,2.00
2023-03-27T02:06:17.098Z,1.90
2023-03-27T02:09:08.749Z,2.00
2023-03-27T02:12:03.199Z,1.90
2023-03-27T02:14:54.399Z,1.90
2023-03-27T02:17:27.687Z,1.90
2023-03-27T02:20:16.241Z,2.00
2023-03-27T02:22:49.628Z,2.00
2023-03-27T02:25:35.213Z,2.00
2023-03-27T02:28:51.537Z,1.90
2023-03-27T02:32:13.414Z,1.80
2023-03-27T02:35:36.766Z,1.70
2023-03-27T02:38:28.733Z,1.60
2023-03-27T02:41:38.167Z,1.60
2023-03-27T02:45:02.878Z,1.70
2023-03-27T02:48:45.519Z,1.60
2023-03-27T02:51:34.116Z,1.70
2023-03-27T02:54:15.037Z,1.50
2023-03-27T02:56:55.839Z,1.50
2023-03-27T02:59:49.336Z,1.50
2023-03-27T03:02:34.835Z,1.40
2023-03-27T03:05:20.970Z,1.40
2023-03-27T03:07:50.056Z,1.50
2023-03-27T03:10:18.133Z,1.40
2023-03-27T03:12:46.003Z,1.40
2023-03-27T03:15:14.172Z,1.40
2023-03-27T03:17:42.442Z,1.30
2023-03-27T03:20:14.929Z,1.40
2023-03-27T03:22:43.039Z,1.40
2023-03-27T03:25:11.280Z,1.40
2023-03-27T03:27:41.502Z,1.40
2023-03-27T03:30:17.535Z,1.40
2023-03-27T03:33:11.599Z,1.30
2023-03-27T03:35:39.414Z,1.20
2023-03-27T03:38:16.286Z,1.10
2023-03-27T03:40:46.786Z,1.10
2023-03-27T03:43:14.566Z,1.20
2023-03-27T03:45:42.387Z,1.20
2023-03-27T03:48:10.569Z,1.30
2023-03-27T03:50:38.372Z,1.10
2023-03-27T03:53:06.303Z,1.30
2023-03-27T03:55:34.266Z,1.30
2023-03-27T03:58:03.032Z,1.30
2023-03-27T04:00:34.685Z,1.30
2023-03-27T04:03:04.725Z,1.20
2023-03-27T04:05:39.062Z,1.30
2023-03-27T04:08:07.985Z,1.20
2023-03-27T04:10:51.069Z,1.20
2023-03-27T04:13:37.224Z,1.20
2023-03-27T04:16:16.330Z,1.20
2023-03-27T04:18:50.761Z,1.20
2023-03-27T04:21:21.165Z,1.20
2023-03-27T04:23:48.936Z,1.30
2023-03-27T04:26:27.299Z,1.50
2023-03-27T04:29:13.802Z,1.50
2023-03-27T04:32:01.192Z,1.60
2023-03-27T04:34:42.304Z,1.60
2023-03-27T04:37:23.235Z,1.70
2023-03-27T04:40:25.463Z,1.80
2023-03-27T04:42:55.999Z,1.80
2023-03-27T04:45:25.988Z,1.80
2023-03-27T04:47:54.710Z,1.70
2023-03-27T04:50:23.545Z,1.60
2023-03-27T04:52:52.718Z,1.60
2023-03-27T04:55:26.209Z,1.60
2023-03-27T04:57:57.648Z,1.60
2023-03-27T05:00:25.755Z,1.60
2023-03-27T05:03:13.910Z,1.70
2023-03-27T05:06:12.062Z,1.80
2023-03-27T05:08:41.602Z,1.80
2023-03-27T05:11:18.510Z,1.90
2023-03-27T05:13:47.083Z,1.80
2023-03-27T05:16:18.775Z,1.80
2023-03-27T05:18:50.063Z,1.80
2023-03-27T05:21:18.600Z,1.80
2023-03-27T05:23:46.425Z,1.80
2023-03-27T05:26:14.326Z,1.90
2023-03-27T05:28:58.662Z,2.00
2023-03-27T05:31:28.508Z,2.00
2023-03-27T05:34:15.041Z,2.10
2023-03-27T05:36:47.209Z,2.20
2023-03-27T05:39:16.013Z,2.20
2023-03-27T05:41:46.651Z,2.40
2023-03-27T05:44:23.806Z,2.40
2023-03-27T05:46:52.098Z,2.50
2023-03-27T05:49:26.395Z,2.60
2023-03-27T05:52:00.147Z,2.60
2023-03-27T05:54:28.043Z,2.70
2023-03-27T05:57:01.418Z,2.70
2023-03-27T05:59:29.380Z,2.70
2023-03-27T06:02:11.698Z,2.60
2023-03-27T06:04:50.427Z,2.60
2023-03-27T06:07:28.092Z,2.60
2023-03-27T06:09:58.030Z,2.60
2023-03-27T06:12:49.047Z,2.60
2023-03-27T06:15:27.720Z,2.60
2023-03-27T06:18:16.561Z,2.60
2023-03-27T06:20:44.541Z,2.50
2023-03-27T06:23:13.412Z,2.60
2023-03-27T06:25:43.675Z,2.60
2023-03-27T06:28:13.509Z,2.70
2023-03-27T06:30:44.922Z,2.80
2023-03-27T06:33:27.616Z,2.90
2023-03-27T06:36:00.946Z,2.90
2023-03-27T06:38:34.547Z,2.90
2023-03-27T06:41:04.455Z,3.00
2023-03-27T06:43:52.447Z,2.90
2023-03-27T06:46:42.766Z,3.10
2023-03-27T06:49:19.140Z,3.20
2023-03-27T06:51:47.582Z,3.30
2023-03-27T06:54:16.308Z,3.40
2023-03-27T06:56:49.079Z,3.50
2023-03-27T06:59:19.391Z,3.80
2023-03-27T07:01:52.574Z,4.30
2023-03-27T07:04:35.773Z,4.90
2023-03-27T07:07:16.853Z,5.20
2023-03-27T07:09:45.682Z,5.50
2023-03-27T07:12:16.225Z,5.80
2023-03-27T07:14:46.766Z,5.70
2023-03-27T07:17:14.736Z,5.20
2023-03-27T07:19:50.623Z,4.80
2023-03-27T07:22:21.593Z,5.30
2023-03-27T07:24:49.500Z,6.00
2023-03-27T07:27:17.582Z,6.20
2023-03-27T07:29:47.178Z,6.30
2023-03-27T07:32:34.048Z,6.10
2023-03-27T07:35:06.104Z,6.40
2023-03-27T07:37:56.306Z,6.10
2023-03-27T07:40:46.701Z,6.10
2023-03-27T07:43:40.328Z,5.70
2023-03-27T07:46:09.194Z,5.90
2023-03-27T07:48:37.456Z,6.30
2023-03-27T07:51:13.874Z,6.50
2023-03-27T07:53:44.752Z,6.40
2023-03-27T07:56:26.595Z,6.30
2023-03-27T07:59:33.423Z,6.30
2023-03-27T08:02:16.625Z,6.30
2023-03-27T08:04:44.585Z,6.70
2023-03-27T08:07:13.064Z,6.80
2023-03-27T08:09:43.423Z,6.80
2023-03-27T08:12:11.608Z,6.80
2023-03-27T08:14:47.124Z,7.10
2023-03-27T08:17:27.848Z,7.30
2023-03-27T08:19:58.245Z,7.10
2023-03-27T08:22:27.217Z,7.50
2023-03-27T08:25:14.797Z,7.00
2023-03-27T08:27:45.909Z,6.30
2023-03-27T08:30:17.206Z,6.30
2023-03-27T08:32:45.986Z,6.80
2023-03-27T08:35:14.495Z,7.30
2023-03-27T08:37:42.368Z,6.60
2023-03-27T08:40:59.217Z,6.30
2023-03-27T08:43:46.655Z,6.40
2023-03-27T08:46:40.690Z,6.90
2023-03-27T08:49:23.385Z,7.00
2023-03-27T08:52:29.305Z,7.40
2023-03-27T08:55:40.650Z,7.20
2023-03-27T08:58:22.594Z,7.20
2023-03-27T09:02:03.725Z,7.30
2023-03-27T09:05:05.027Z,7.20
2023-03-27T09:08:32.234Z,6.70
2023-03-27T09:11:33.131Z,7.30
2023-03-27T09:14:35.767Z,8.30
2023-03-27T09:17:26.723Z,7.90
2023-03-27T09:20:47.551Z,7.70
2023-03-27T09:23:47.895Z,7.40
2023-03-27T09:26:38.119Z,7.70
2023-03-27T09:29:26.870Z,8.20
2023-03-27T09:32:07.356Z,7.90
2023-03-27T09:34:36.879Z,7.30
2023-03-27T09:37:18.454Z,6.60
2023-03-27T09:39:53.596Z,6.70
2023-03-27T09:42:39.578Z,7.20
2023-03-27T09:45:13.291Z,7.50
2023-03-27T09:48:29.461Z,7.40
2023-03-27T09:50:58.516Z,7.20
2023-03-27T09:53:33.520Z,7.40
2023-03-27T09:56:16.525Z,7.60
2023-03-27T09:59:38.333Z,7.10
2023-03-27T10:02:27.765Z,7.60
2023-03-27T10:05:20.304Z,8.00
2023-03-27T10:07:53.575Z,7.40
2023-03-27T10:10:46.090Z,7.10
2023-03-27T10:13:29.620Z,7.40
2023-03-27T10:16:07.223Z,7.60
2023-03-27T10:19:02.062Z,7.50
2023-03-27T10:21:45.809Z,7.20
2023-03-27T10:24:45.519Z,7.30
2023-03-27T10:27:33.528Z,7.30
2023-03-27T10:30:34.366Z,7.00
2023-03-27T10:33:41.429Z,6.70
2023-03-27T10:36:14.055Z,6.50
2023-03-27T10:38:44.353Z,6.70
2023-03-27T10:41:39.310Z,7.00
2023-03-27T10:44:21.110Z,7.00
2023-03-27T10:46:56.452Z,7.30
2023-03-27T10:50:02.610Z,7.50
2023-03-27T10:53:24.278Z,7.70
2023-03-27T10:57:18.755Z,8.00
2023-03-27T11:00:20.745Z,7.50
2023-03-27T11:03:26.394Z,7.40
2023-03-27T11:06:12.125Z,7.40
2023-03-27T11:08:54.389Z,7.20
2023-03-27T11:11:58.051Z,7.20
2023-03-27T11:14:48.205Z,7.30
2023-03-27T11:17:41.527Z,7.40
2023-03-27T11:21:08.830Z,8.00
2023-03-27T11:24:33.997Z,8.30
2023-03-27T11:27:43.387Z,7.90
2023-03-27T11:30:44.471Z,7.80
2023-03-27T11:33:47.378Z,7.80
2023-03-27T11:37:03.469Z,8.00
2023-03-27T11:40:13.496Z,7.40
2023-03-27T11:42:46.848Z,6.80
2023-03-27T11:45:24.539Z,6.70
2023-03-27T11:48:33.814Z,6.60
2023-03-27T11:52:26.008Z,6.50
2023-03-27T11:55:42.496Z,6.40
2023-03-27T11:58:37.616Z,6.40
2023-03-27T12:01:37.629Z,6.60
2023-03-27T12:04:52.336Z,7.10
2023-03-27T12:08:33.195Z,7.50
2023-03-27T12:11:10.665Z,8.10
2023-03-27T12:14:28.442Z,8.30
2023-03-27T12:18:04.868Z,8.10
2023-03-27T12:21:46.613Z,8.20
2023-03-27T12:25:17.403Z,8.30
2023-03-27T12:29:01.254Z,8.20
2023-03-27T12:32:37.953Z,8.50
2023-03-27T12:35:21.437Z,8.10
2023-03-27T12:38:18.395Z,7.20
2023-03-27T12:41:11.127Z,7.00
2023-03-27T12:44:04.521Z,6.50
2023-03-27T12:46:43.169Z,6.10
2023-03-27T12:49:13.213Z,6.00
2023-03-27T12:51:58.006Z,5.80
2023-03-27T12:55:37.382Z,5.70
2023-03-27T12:58:41.161Z,5.70
2023-03-27T13:01:53.350Z,5.80
2023-03-27T13:05:32.871Z,5.70
2023-03-27T13:08:45.470Z,5.60
2023-03-27T13:11:53.573Z,5.60
2023-03-27T13:15:15.493Z,5.40
2023-03-27T13:18:54.561Z,5.40
2023-03-27T13:22:17.678Z,5.50
2023-03-27T13:25:53.964Z,5.40
2023-03-27T13:28:39.635Z,5.30
2023-03-27T13:31:46.304Z,5.30
2023-03-27T13:35:06.369Z,5.60
2023-03-27T13:37:36.458Z,6.00
2023-03-27T13:40:35.117Z,6.20
2023-03-27T13:43:35.384Z,6.40
2023-03-27T13:46:19.386Z,6.70
2023-03-27T13:50:06.283Z,6.80
2023-03-27T13:53:51.225Z,6.90
2023-03-27T13:57:35.641Z,7.10
2023-03-27T14:01:09.590Z,7.40
2023-03-27T14:04:18.162Z,7.40
2023-03-27T14:07:28.179Z,7.50
2023-03-27T14:11:09.844Z,7.60
2023-03-27T14:14:37.400Z,7.60
2023-03-27T14:17:43.953Z,7.40
2023-03-27T14:20:55.189Z,7.40
2023-03-27T14:24:10.018Z,7.60
2023-03-27T14:26:49.564Z,7.90
2023-03-27T14:29:22.483Z,8.00
2023-03-27T14:31:52.365Z,7.90
2023-03-27T14:34:54.625Z,7.80
2023-03-27T14:37:45.171Z,7.90
2023-03-27T14:40:41.806Z,7.80
2023-03-27T14:43:23.261Z,7.90
2023-03-27T14:46:04.418Z,7.80
2023-03-27T14:48:50.756Z,7.80
2023-03-27T14:51:37.763Z,8.30
2023-03-27T14:54:29.593Z,8.40
2023-03-27T14:57:11.071Z,8.60
2023-03-27T14:59:47.696Z,8.60
2023-03-27T15:02:34.964Z,8.50
2023-03-27T15:05:19.342Z,8.60
2023-03-27T15:07:53.014Z,8.60
2023-03-27T15:10:32.763Z,8.50
2023-03-27T15:13:36.691Z,8.60
2023-03-27T15:16:18.521Z,8.80
2023-03-27T15:19:24.481Z,8.80
2023-03-27T15:22:12.801Z,9.00
2023-03-27T15:24:59.964Z,9.00
2023-03-27T15:27:46.900Z,9.10
2023-03-27T15:30:59.279Z,8.80
2023-03-27T15:34:06.455Z,9.00
2023-03-27T15:36:39.613Z,9.00
2023-03-27T15:39:08.491Z,8.80
2023-03-27T15:41:43.088Z,8.80
2023-03-27T15:44:25.977Z,8.90
2023-03-27T15:47:00.709Z,8.80
2023-03-27T15:49:43.941Z,8.60
2023-03-27T15:52:34.200Z,8.40
2023-03-27T15:55:04.145Z,8.20
2023-03-27T15:57:32.459Z,8.00
2023-03-27T16:00:14.738Z,8.10
2023-03-27T16:02:43.258Z,8.40
2023-03-27T16:05:18.759Z,8.40
2023-03-27T16:07:49.292Z,8.10
2023-03-27T16:10:37.886Z,7.90
2023-03-27T16:13:07.557Z,7.40
2023-03-27T16:15:42.573Z,7.40
2023-03-27T16:18:41.121Z,7.40
2023-03-27T16:21:14.040Z,7.20
2023-03-27T16:23:44.069Z,7.00
2023-03-27T16:26:22.900Z,6.90
2023-03-27T16:28:51.040Z,7.00
2023-03-27T16:31:21.256Z,7.00
2023-03-27T16:33:49.143Z,6.70
2023-03-27T16:36:32.774Z,6.70
2023-03-27T16:39:00.896Z,6.60
2023-03-27T16:41:28.716Z,6.50
2023-03-27T16:43:56.475Z,6.40
2023-03-27T16:46:30.813Z,6.40
2023-03-27T16:48:58.936Z,6.40
2023-03-27T16:51:29.321Z,6.40
2023-03-27T16:53:57.487Z,6.30
2023-03-27T16:56:25.334Z,6.20
2023-03-27T16:58:53.403Z,6.20
2023-03-27T17:01:23.995Z,6.20
2023-03-27T17:03:52.133Z,6.20
2023-03-27T17:06:22.204Z,6.20
2023-03-27T17:08:55.455Z,6.10
2023-03-27T17:11:23.972Z,6.10
2023-03-27T17:13:52.716Z,6.00
2023-03-27T17:16:20.937Z,5.90
2023-03-27T17:18:48.755Z,5.80
2023-03-27T17:21:16.595Z,5.80
2023-03-27T17:23:47.694Z,5.70
2023-03-27T17:26:35.768Z,5.60
2023-03-27T17:29:08.546Z,5.50
2023-03-27T17:31:36.908Z,5.60
2023-03-27T17:34:04.593Z,5.50
2023-03-27T17:36:42.775Z,5.50
2023-03-27T17:39:13.559Z,5.40
2023-03-27T17:41:41.221Z,5.30
2023-03-27T17:44:13.400Z,5.30
2023-03-27T17:46:41.311Z,5.30
2023-03-27T17:49:09.294Z,5.30
2023-03-27T17:51:37.986Z,5.20
2023-03-27T17:54:06.019Z,5.30
2023-03-27T17:56:34.136Z,5.10
2023-03-27T17:59:02.541Z,5.10
2023-03-27T18:01:30.550Z,5.00
2023-03-27T18:04:00.851Z,5.00
2023-03-27T18:06:28.825Z,5.00
2023-03-27T18:08:56.547Z,5.00
2023-03-27T18:11:24.688Z,5.10
2023-03-27T18:13:53.714Z,4.90
2023-03-27T18:16:23.160Z,4.90
2023-03-27T18:18:54.342Z,4.70
2023-03-27T18:21:22.843Z,4.80
2023-03-27T18:23:55.185Z,4.80
2023-03-27T18:26:23.583Z,4.90
2023-03-27T18:28:55.400Z,4.70
2023-03-27T18:31:23.545Z,4.60
2023-03-27T18:33:51.573Z,4.60
2023-03-27T18:36:19.506Z,4.60
2023-03-27T18:38:49.611Z,4.60
2023-03-27T18:41:18.215Z,4.50
2023-03-27T18:43:45.971Z,4.40
2023-03-27T18:46:17.299Z,4.30
2023-03-27T18:48:49.207Z,4.20
2023-03-27T18:51:20.440Z,4.10
2023-03-27T18:53:50.862Z,4.10
2023-03-27T18:56:18.833Z,4.00
2023-03-27T18:58:47.354Z,3.90
2023-03-27T19:01:16.092Z,3.90
2023-03-27T19:03:44.877Z,3.90
2023-03-27T19:06:13.399Z,4.00
2023-03-27T19:08:43.539Z,4.00
2023-03-27T19:11:11.768Z,4.10
2023-03-27T19:13:58.061Z,4.10
2023-03-27T19:16:44.211Z,4.20
2023-03-27T19:19:32.163Z,4.10
2023-03-27T19:22:18.657Z,4.00
2023-03-27T19:24:51.595Z,4.00
2023-03-27T19:27:23.450Z,3.90
2023-03-27T19:29:54.755Z,3.90
2023-03-27T19:32:24.271Z,3.80
2023-03-27T19:34:52.456Z,3.80
2023-03-27T19:37:20.365Z,3.80
2023-03-27T19:39:48.210Z,3.70
2023-03-27T19:42:15.938Z,3.70
2023-03-27T19:44:44.159Z,3.60
2023-03-27T19:47:12.481Z,3.60
2023-03-27T19:49:41.288Z,3.50
2023-03-27T19:52:19.939Z,3.40
2023-03-27T19:54:47.944Z,3.40
2023-03-27T19:57:16.462Z,3.30
2023-03-27T19:59:51.496Z,3.20
2023-03-27T20:02:19.426Z,3.20
2023-03-27T20:04:49.269Z,3.20
2023-03-27T20:07:16.888Z,3.10
2023-03-27T20:09:44.859Z,3.20
2023-03-27T20:12:12.766Z,3.10
2023-03-27T20:14:41.215Z,3.10
2023-03-27T20:17:27.696Z,3.10
2023-03-27T20:19:56.255Z,3.00
2023-03-27T20:22:26.812Z,3.00
2023-03-27T20:24:56.044Z,3.10
2023-03-27T20:27:25.954Z,3.00
2023-03-27T20:29:53.926Z,2.90
2023-03-27T20:32:21.627Z,2.90
2023-03-27T20:34:50.853Z,2.80
2023-03-27T20:37:23.189Z,2.90
2023-03-27T20:40:05.125Z,2.90
2023-03-27T20:42:38.955Z,2.90
2023-03-27T20:45:09.543Z,2.90
2023-03-27T20:47:43.240Z,2.80
2023-03-27T20:50:11.912Z,2.80
2023-03-27T20:52:39.652Z,2.80
2023-03-27T20:55:11.887Z,2.80
2023-03-27T20:57:41.176Z,2.80
2023-03-27T21:00:16.977Z,2.80
2023-03-27T21:02:46.016Z,2.70
2023-03-27T21:05:13.973Z,2.60
2023-03-27T21:07:52.616Z,2.50
2023-03-27T21:10:23.908Z,2.30
2023-03-27T21:12:53.749Z,2.40
2023-03-27T21:15:21.621Z,2.40
2023-03-27T21:17:49.744Z,2.30
2023-03-27T21:20:17.688Z,2.20
2023-03-27T21:22:46.295Z,2.20
2023-03-27T21:25:13.945Z,2.10
2023-03-27T21:27:41.824Z,2.10
2023-03-27T21:30:47.340Z,2.10
2023-03-27T21:33:16.390Z,2.00
2023-03-27T21:35:50.004Z,2.20
2023-03-27T21:38:18.989Z,2.30
2023-03-27T21:40:47.987Z,2.40
2023-03-27T21:43:16.677Z,2.40
2023-03-27T21:45:45.241Z,2.50
2023-03-27T21:48:13.136Z,2.60
2023-03-27T21:50:40.973Z,2.50
2023-03-27T21:53:09.286Z,2.40
2023-03-27T21:55:37.691Z,2.30
2023-03-27T21:58:06.740Z,2.30
2023-03-27T22:00:35.919Z,2.30
2023-03-27T22:03:03.706Z,2.20
2023-03-27T22:05:35.386Z,2.20
2023-03-27T22:08:07.120Z,2.10
2023-03-27T22:10:36.768Z,2.10
2023-03-27T22:13:04.907Z,2.10
2023-03-27T22:15:32.904Z,2.10
2023-03-27T22:18:01.363Z,2.00
2023-03-27T22:20:29.376Z,1.80
2023-03-27T22:22:57.607Z,1.80
2023-03-27T22:25:25.485Z,1.70
2023-03-27T22:27:53.366Z,1.80
2023-03-27T22:30:24.110Z,1.80
2023-03-27T22:32:51.912Z,1.70
2023-03-27T22:35:19.734Z,1.80
2023-03-27T22:37:47.521Z,1.70
2023-03-27T22:40:15.533Z,1.70
2023-03-27T22:42:43.392Z,1.80
2023-03-27T22:45:12.194Z,1.70
2023-03-27T22:47:40.464Z,1.70
2023-03-27T22:50:09.248Z,1.70
2023-03-27T22:52:37.787Z,1.80
2023-03-27T22:55:06.983Z,1.70
2023-03-27T22:57:39.819Z,1.70
2023-03-27T23:00:09.527Z,1.60
2023-03-27T23:02:37.750Z,1.50
2023-03-27T23:05:06.895Z,1.70
2023-03-27T23:07:37.868Z,1.80
2023-03-27T23:10:10.652Z,1.70
2023-03-27T23:12:41.584Z,1.60
2023-03-27T23:15:13.942Z,1.50
2023-03-27T23:17:46.168Z,1.40
2023-03-27T23:20:14.014Z,1.40
2023-03-27T23:22:41.594Z,1.30
2023-03-27T23:25:10.382Z,1.30
2023-03-27T23:27:38.435Z,1.40
2023-03-27T23:30:08.084Z,1.50
2023-03-27T23:32:39.054Z,1.50
2023-03-27T23:35:12.211Z,1.50
2023-03-27T23:37:40.152Z,1.50
2023-03-27T23:40:09.570Z,1.50
2023-03-27T23:42:37.331Z,1.50
2023-03-27T23:45:05.879Z,1.40
2023-03-27T23:47:33.884Z,1.40
2023-03-27T23:50:01.493Z,1.40
2023-03-27T23:52:29.332Z,1.40
2023-03-27T23:54:56.995Z,1.40
2023-03-27T23:57:25.634Z,1.30
2023-03-27T23:59:53.319Z,1.40
